Time;durP1;ratioP1;P1;durP2;ratioP2;P2;SDS_P1;SDS_P2;PMS_P1;PMS_P2;Temp;Humidity;BMP_temperature;BMP_pressure;BME280_temperature;BME280_humidity;BME280_pressure;Samples;Min_cycle;Max_cycle;Signal;HPM_P1;HPM_P2
2022/01/14 00:00:09;;;;;;;4.28;3.65;;;;;;;20.14;38.38;103784.41;7318844;19;131066;-65
2022/01/14 00:02:35;;;;;;;4.07;3.17;;;;;;;20.12;38.27;103781.78;7314170;19;130484;-64
2022/01/14 00:05:02;;;;;;;6.03;3.60;;;;;;;20.11;38.60;103781.97;7318552;19;129221;-64
2022/01/14 00:07:29;;;;;;;5.30;3.53;;;;;;;20.11;38.42;103779.19;7315829;19;131269;-64
2022/01/14 00:09:56;;;;;;;5.00;3.60;;;;;;;20.08;38.23;103774.88;7316891;19;131153;-65
2022/01/14 00:12:27;;;;;;;5.20;3.80;;;;;;;20.07;38.39;103775.06;7318679;19;130344;-64
2022/01/14 00:15:13;;;;;;;3.72;3.13;;;;;;;20.04;38.36;103769.91;7314882;19;128920;-65
2022/01/14 00:17:40;;;;;;;5.50;3.70;;;;;;;20.02;38.60;103763.66;7318048;19;131016;-64
2022/01/14 00:20:08;;;;;;;4.22;3.30;;;;;;;20.00;38.22;103766.59;7312748;19;131624;-65
2022/01/14 00:22:35;;;;;;;3.47;3.05;;;;;;;19.99;38.74;103759.31;7316520;19;128799;-65
2022/01/14 00:33:08;;;;;;;5.20;3.20;;;;;;;19.91;38.87;103745.47;7311985;19;128833;-64
2022/01/14 00:35:43;;;;;;;4.25;3.40;;;;;;;19.88;38.68;103735.59;7315975;19;129064;-64
2022/01/14 00:38:11;;;;;;;4.50;3.60;;;;;;;19.86;38.82;103732.13;7317299;19;131219;-65
2022/01/14 00:40:39;;;;;;;3.95;3.10;;;;;;;19.86;38.28;103732.13;7314605;19;131063;-64
2022/01/14 00:43:06;;;;;;;4.88;3.70;;;;;;;19.83;38.55;103722.28;7317475;19;131161;-65
2022/01/14 00:45:33;;;;;;;3.80;3.42;;;;;;;19.82;38.61;103730.78;7312680;19;129774;-64
2022/01/14 00:48:00;;;;;;;4.63;3.42;;;;;;;19.80;38.71;103721.78;7318290;19;131938;-64
2022/01/14 00:50:27;;;;;;;4.40;3.40;;;;;;;19.79;38.72;103714.50;7313919;19;131831;-64
2022/01/14 00:52:53;;;;;;;4.43;3.30;;;;;;;19.78;38.91;103713.63;7316298;19;129530;-67
2022/01/14 00:55:28;;;;;;;4.55;3.08;;;;;;;19.76;38.51;103699.03;7316932;19;129161;-64
2022/01/14 01:00:28;;;;;;;5.10;3.53;;;;;;;19.75;38.66;103715.91;7316971;19;131062;-65
2022/01/14 01:02:55;;;;;;;4.50;3.30;;;;;;;19.73;38.88;103718.00;7313119;19;128849;-64
2022/01/14 01:05:22;;;;;;;3.97;3.03;;;;;;;19.69;38.99;103715.59;7317364;19;128820;-65
2022/01/14 01:08:26;;;;;;;4.88;3.15;;;;;;;19.69;38.70;103718.38;7315218;19;131140;-64
2022/01/14 01:10:48;;;;;;;5.60;3.45;;;;;;;19.67;38.56;103723.28;7313232;19;131960;-64
2022/01/14 01:13:22;;;;;;;3.80;3.00;;;;;;;19.67;38.83;103716.84;7317134;19;128879;-64
2022/01/14 01:15:49;;;;;;;4.10;3.05;;;;;;;19.66;39.09;103715.09;7312319;19;129175;-65
2022/01/14 01:18:18;;;;;;;5.25;3.50;;;;;;;19.65;38.73;103721.72;7317367;19;131849;-64
2022/01/14 01:20:45;;;;;;;3.35;2.88;;;;;;;19.62;38.91;103714.63;7313223;19;131499;-64
2022/01/14 01:23:12;;;;;;;4.13;2.88;;;;;;;19.62;38.82;103713.78;7315532;19;130348;-65
2022/01/14 01:25:44;;;;;;;3.25;2.67;;;;;;;19.60;39.04;103711.16;7313379;19;129042;-64
2022/01/14 01:28:11;;;;;;;4.45;3.40;;;;;;;19.57;38.94;103711.53;7315347;19;131219;-65
2022/01/14 01:31:05;;;;;;;4.72;3.00;;;;;;;19.57;38.83;103705.97;7315619;19;131081;-65
2022/01/14 01:33:32;;;;;;;3.88;3.13;;;;;;;19.56;38.78;103701.50;7311055;19;128999;-64
2022/01/14 01:35:59;;;;;;;4.28;3.35;;;;;;;19.53;39.22;103693.53;7315527;19;128810;-65
2022/01/14 01:38:26;;;;;;;5.63;3.38;;;;;;;19.53;38.92;103696.31;7313192;19;132545;-64
2022/01/14 01:40:53;;;;;;;4.20;3.10;;;;;;;19.52;39.22;103697.34;7315321;19;131048;-65
2022/01/14 01:43:24;;;;;;;3.58;3.13;;;;;;;19.51;39.18;103701.16;7315927;19;128900;-65
2022/01/14 01:45:54;;;;;;;3.85;3.40;;;;;;;19.50;38.92;103699.44;7313213;19;129512;-65
2022/01/14 01:48:21;;;;;;;4.07;3.20;;;;;;;19.48;39.17;103702.41;7316291;19;131259;-64
2022/01/14 01:50:47;;;;;;;4.40;3.20;;;;;;;19.48;39.08;103685.75;7312210;19;131151;-64
2022/01/14 01:53:14;;;;;;;3.83;2.83;;;;;;;19.47;39.31;103685.91;7314360;19;128663;-64
2022/01/14 01:55:41;;;;;;;4.03;3.22;;;;;;;19.46;39.41;103685.06;7312583;19;129072;-65
2022/01/14 01:58:08;;;;;;;4.45;3.30;;;;;;;19.45;38.90;103685.22;7313895;19;131316;-65
2022/01/14 02:00:35;;;;;;;3.53;3.20;;;;;;;19.44;39.12;103683.53;7315526;19;131117;-64
2022/01/14 02:03:02;;;;;;;4.18;3.42;;;;;;;19.43;39.14;103679.03;7313667;19;129139;-65
2022/01/14 02:05:29;;;;;;;5.60;3.72;;;;;;;19.42;39.16;103685.63;7313420;19;132810;-64
2022/01/14 02:07:56;;;;;;;3.47;2.97;;;;;;;19.40;38.92;103671.91;7313173;19;131011;-65
2022/01/14 02:10:24;;;;;;;3.92;3.47;;;;;;;19.40;39.41;103677.47;7313071;19;131967;-65
2022/01/14 02:12:53;;;;;;;3.75;3.22;;;;;;;19.39;39.25;103684.06;7315081;19;129089;-64
2022/01/14 02:15:29;;;;;;;4.43;3.35;;;;;;;19.38;38.92;103683.22;7311644;19;129163;-64
2022/01/14 02:18:49;;;;;;;4.15;3.40;;;;;;;19.36;39.38;103682.53;7314449;19;131363;-64
2022/01/14 02:23:31;;;;;;;5.15;3.03;;;;;;;19.34;39.34;103667.97;7312513;19;129513;-65
2022/01/14 02:25:58;;;;;;;3.42;2.88;;;;;;;19.34;39.31;103667.13;7314271;19;128964;-64
2022/01/14 02:28:25;;;;;;;3.72;3.00;;;;;;;19.33;39.48;103663.44;7310252;19;132067;-64
2022/01/14 02:30:52;;;;;;;3.95;3.08;;;;;;;19.32;39.26;103664.50;7315618;19;131179;-65
2022/01/14 02:33:19;;;;;;;3.70;3.35;;;;;;;19.32;39.40;103666.44;7311901;19;129160;-65
2022/01/14 02:35:49;;;;;;;3.58;3.25;;;;;;;19.30;39.54;103666.63;7314961;19;128962;-65
2022/01/14 02:38:16;;;;;;;3.53;3.10;;;;;;;19.29;39.21;103659.34;7308954;19;131352;-64
2022/01/14 02:40:45;;;;;;;3.10;2.80;;;;;;;19.29;39.07;103659.34;7314103;19;132204;-64
2022/01/14 02:43:14;;;;;;;4.20;2.72;;;;;;;19.26;39.39;103654.16;7311752;19;131578;-65
2022/01/14 02:45:49;;;;;;;3.80;3.40;;;;;;;19.27;39.42;103655.00;7311482;19;128808;-64
2022/01/14 02:48:21;;;;;;;2.88;2.60;;;;;;;19.25;39.15;103649.66;7314823;19;132607;-64
2022/01/14 02:51:11;;;;;;;3.50;3.13;;;;;;;19.26;39.53;103654.16;7311442;19;140199;-64
2022/01/14 02:56:09;;;;;;;4.10;3.08;;;;;;;19.23;39.31;103643.41;7312042;19;130380;-64
2022/01/14 02:58:38;;;;;;;4.55;2.85;;;;;;;19.22;39.11;103648.09;7313133;19;131978;-64
2022/01/14 03:01:08;;;;;;;3.15;2.80;;;;;;;19.21;39.27;103648.28;7309728;19;131999;-64
2022/01/14 03:03:37;;;;;;;4.30;3.15;;;;;;;19.20;39.10;103649.31;7311528;19;131193;-65
2022/01/14 03:06:05;;;;;;;3.00;2.70;;;;;;;19.19;39.31;103636.50;7314276;19;129227;-64
2022/01/14 03:08:33;;;;;;;2.95;2.72;;;;;;;19.18;39.40;103641.16;7310179;19;135729;-65
2022/01/14 03:11:06;;;;;;;3.28;2.92;;;;;;;19.17;39.40;103642.19;7314090;19;130996;-65
2022/01/14 03:13:33;;;;;;;4.07;3.35;;;;;;;19.16;39.25;103637.69;7309857;19;129625;-65
2022/01/14 03:16:01;;;;;;;3.20;2.78;;;;;;;19.15;39.20;103644.28;7313209;19;130670;-65
2022/01/14 03:18:49;;;;;;;3.33;3.03;;;;;;;19.14;39.59;103633.38;7310856;19;131261;-64
2022/01/14 03:21:25;;;;;;;3.63;3.28;;;;;;;19.15;39.61;103635.13;7309046;19;132167;-64
2022/01/14 03:24:03;;;;;;;3.60;2.93;;;;;;;19.13;39.07;103627.00;7312322;19;128748;-65
2022/01/14 03:26:30;;;;;;;3.45;3.00;;;;;;;19.13;39.41;103620.56;7309544;19;129256;-65
2022/01/14 03:28:57;;;;;;;3.80;3.08;;;;;;;19.11;39.51;103622.66;7312068;19;131831;-64
2022/01/14 03:31:24;;;;;;;3.42;3.13;;;;;;;19.11;39.64;103617.09;7313531;19;134783;-65
2022/01/14 03:33:50;;;;;;;3.40;3.10;;;;;;;19.10;39.57;103618.13;7309900;19;130132;-64
2022/01/14 03:36:17;;;;;;;3.72;2.80;;;;;;;19.08;39.27;103619.19;7312603;19;129630;-65
2022/01/14 03:38:44;;;;;;;4.38;3.25;;;;;;;19.08;39.36;103624.75;7308600;19;131988;-64
2022/01/14 03:41:10;;;;;;;3.58;2.90;;;;;;;19.07;39.33;103628.59;7314963;19;131189;-64
2022/01/14 03:43:38;;;;;;;3.90;2.88;;;;;;;19.06;39.52;103621.31;7309573;19;129377;-64
2022/01/14 03:46:05;;;;;;;3.13;2.80;;;;;;;19.05;39.57;103630.69;7309605;19;129023;-65
2022/01/14 03:48:32;;;;;;;3.30;3.00;;;;;;;19.05;39.23;103641.78;7310280;19;131233;-64
2022/01/14 03:50:59;;;;;;;2.90;2.60;;;;;;;19.04;39.32;103640.03;7310404;19;132502;-65
2022/01/14 03:53:26;;;;;;;3.17;2.88;;;;;;;19.04;39.41;103634.50;7310996;19;128904;-64
2022/01/14 03:55:53;;;;;;;3.40;3.10;;;;;;;19.03;39.38;103638.31;7308365;19;129470;-65
2022/01/14 03:58:37;;;;;;;4.35;2.83;;;;;;;19.03;39.46;103641.09;7312549;19;131210;-64
2022/01/14 04:01:06;;;;;;;4.97;2.80;;;;;;;19.01;39.58;103634.00;7309678;19;131235;-64
2022/01/14 04:03:33;;;;;;;3.15;2.85;;;;;;;19.00;39.35;103635.91;7310563;19;129322;-65
2022/01/14 04:06:00;;;;;;;2.97;2.75;;;;;;;19.00;39.35;103640.59;7309288;19;131850;-65
2022/01/14 04:08:27;;;;;;;3.90;3.00;;;;;;;18.99;39.21;103636.09;7310312;19;131234;-65
2022/01/14 04:10:56;;;;;;;3.00;2.78;;;;;;;18.98;39.45;103628.81;7310753;19;132913;-64
2022/01/14 04:13:35;;;;;;;3.30;2.97;;;;;;;18.96;39.44;103626.19;7308705;19;129912;-64
2022/01/14 04:16:02;;;;;;;3.47;3.17;;;;;;;18.96;39.54;103620.66;7312712;19;131749;-64
2022/01/14 04:18:29;;;;;;;3.30;3.00;;;;;;;18.95;39.32;103618.97;7307064;19;132232;-65
2022/01/14 04:20:56;;;;;;;3.35;3.05;;;;;;;18.94;39.59;103620.00;7311040;19;132187;-65
2022/01/14 04:23:23;;;;;;;3.20;2.80;;;;;;;18.95;39.19;103615.31;7309052;19;128922;-64
2022/01/14 04:25:52;;;;;;;3.25;2.95;;;;;;;18.95;39.17;103623.63;7308509;19;129021;-64
2022/01/14 04:28:20;;;;;;;3.72;2.92;;;;;;;18.93;39.61;103623.81;7314061;19;132109;-63
2022/01/14 04:30:47;;;;;;;3.10;2.65;;;;;;;;;;7314817;19;131549;-64
2022/01/14 04:33:14;;;;;;;3.13;2.83;;;;;;;18.89;39.25;103614.97;7319270;19;128554;-65
2022/01/14 04:35:41;;;;;;;2.97;2.60;;;;;;;18.90;39.64;103610.31;7314740;19;128975;-65
2022/01/14 04:38:07;;;;;;;3.17;2.88;;;;;;;18.88;39.59;103601.28;7317421;19;130930;-64
2022/01/14 04:40:34;;;;;;;4.13;3.00;;;;;;;18.89;39.57;103605.81;7313806;19;131027;-66
2022/01/14 04:43:01;;;;;;;3.50;2.80;;;;;;;18.88;39.21;103604.06;7309199;19;129065;-64
2022/01/14 04:46:02;;;;;;;3.30;2.85;;;;;;;18.87;39.17;103607.88;7315955;19;129662;-65
2022/01/14 04:48:15;;;;;;;3.38;3.08;;;;;;;18.85;39.63;103608.09;7314798;19;133102;-64
2022/01/14 04:50:41;;;;;;;3.03;2.75;;;;;;;18.86;39.16;103611.72;7316455;19;131874;-64
2022/01/14 04:53:09;;;;;;;3.03;2.70;;;;;;;18.87;39.72;103622.63;7315712;19;130881;-65
2022/01/14 04:55:36;;;;;;;3.90;2.50;;;;;;;18.90;39.73;103619.47;7311621;19;128986;-64
2022/01/14 04:58:04;;;;;;;3.33;2.88;;;;;;;18.97;39.53;103607.66;7317960;19;131820;-65
2022/01/14 05:00:31;;;;;;;2.97;2.58;;;;;;;19.06;39.50;103610.22;7312430;19;131966;-65
2022/01/14 05:02:58;;;;;;;2.85;2.53;;;;;;;19.21;39.41;103604.75;7317943;19;128866;-65
2022/01/14 05:05:28;;;;;;;2.83;2.50;;;;;;;19.38;39.32;103608.25;7313714;19;129056;-65
2022/01/14 05:07:56;;;;;;;3.67;2.40;;;;;;;19.57;39.18;103606.00;7315941;19;132059;-65
2022/01/14 05:12:57;;;;;;;3.17;2.40;;;;;;;20.03;38.27;103607.00;7314412;19;130957;-65
2022/01/14 05:15:23;;;;;;;2.67;2.42;;;;;;;20.26;38.05;103615.22;7317186;19;128998;-65
2022/01/14 05:17:52;;;;;;;3.00;2.42;;;;;;;20.51;37.64;103599.09;7314280;19;131179;-65
2022/01/14 05:20:19;;;;;;;2.58;2.20;;;;;;;20.75;37.20;103594.25;7317545;19;131108;-65
2022/01/14 05:22:46;;;;;;;2.45;2.25;;;;;;;21.00;37.21;103591.16;7311452;19;129054;-65
2022/01/14 05:25:14;;;;;;;2.80;2.33;;;;;;;21.22;36.46;103590.09;7316488;19;128887;-65
2022/01/14 05:27:43;;;;;;;3.38;2.22;;;;;;;21.42;36.57;103592.19;7312682;19;131137;-66
2022/01/14 05:30:13;;;;;;;2.85;2.55;;;;;;;21.56;36.23;103584.84;7315710;19;131155;-65
2022/01/14 05:32:48;;;;;;;2.65;2.45;;;;;;;21.66;35.99;103590.94;7313965;19;129071;-65
2022/01/14 05:35:16;;;;;;;2.55;2.15;;;;;;;21.71;35.87;103581.09;7312295;19;129114;-65
2022/01/14 05:37:43;;;;;;;2.40;2.20;;;;;;;21.71;35.50;103579.16;7317261;19;131588;-64
2022/01/14 05:40:12;;;;;;;2.50;2.30;;;;;;;21.70;35.53;103588.59;7308553;19;131213;-63
2022/01/14 05:42:39;;;;;;;2.95;2.45;;;;;;;21.66;35.56;103578.94;7316095;19;128658;-63
2022/01/14 05:45:09;;;;;;;2.55;2.20;;;;;;;21.61;35.78;103584.25;7312350;19;129774;-63
2022/01/14 05:47:37;;;;;;;2.70;2.20;;;;;;;21.52;35.91;103576.03;7314486;19;134297;-63
2022/01/14 05:50:05;;;;;;;3.03;2.33;;;;;;;21.45;35.90;103566.72;7316318;19;131086;-63
2022/01/14 05:52:31;;;;;;;2.50;2.30;;;;;;;21.38;35.93;103563.03;7313242;19;136360;-63
2022/01/14 05:54:58;;;;;;;2.50;2.28;;;;;;;21.31;35.93;103567.66;7316624;19;129712;-63
2022/01/14 05:57:25;;;;;;;2.67;2.47;;;;;;;21.22;36.45;103555.81;7310651;19;132073;-63
2022/01/14 05:59:51;;;;;;;2.60;2.35;;;;;;;21.15;36.55;103558.53;7313879;19;131197;-63
2022/01/14 06:02:18;;;;;;;3.03;2.38;;;;;;;21.07;36.40;103555.88;7311943;19;130071;-63
2022/01/14 06:04:45;;;;;;;3.78;2.50;;;;;;;20.98;36.53;103551.50;7314331;19;129043;-63
2022/01/14 06:07:11;;;;;;;2.75;2.22;;;;;;;20.91;36.69;103548.66;7312388;19;133062;-62
2022/01/14 06:09:38;;;;;;;3.13;2.50;;;;;;;20.83;36.49;103554.38;7311383;19;131127;-63
2022/01/14 06:12:06;;;;;;;3.63;2.60;;;;;;;20.76;36.79;103559.84;7312321;19;128923;-63
2022/01/14 06:14:36;;;;;;;4.30;2.92;;;;;;;20.69;36.57;103561.66;7307503;19;129292;-62
2022/01/14 06:17:03;;;;;;;3.65;3.15;;;;;;;20.60;36.67;103561.78;7313439;19;131092;-63
2022/01/14 06:19:30;;;;;;;4.50;2.70;;;;;;;20.54;36.85;103557.00;7308634;19;132054;-63
2022/01/14 06:21:57;;;;;;;3.63;2.70;;;;;;;20.51;36.89;103557.41;7313560;19;128857;-63
2022/01/14 06:24:23;;;;;;;3.13;2.67;;;;;;;20.47;36.54;103556.06;7311228;19;129753;-63
2022/01/14 06:26:50;;;;;;;3.45;2.70;;;;;;;20.48;36.81;103546.66;7309793;19;131132;-62
2022/01/14 06:29:18;;;;;;;5.05;2.67;;;;;;;20.52;37.13;103548.00;7313853;19;131924;-63
2022/01/14 06:31:44;;;;;;;3.85;2.90;;;;;;;20.56;37.05;103545.69;7309679;19;129359;-63
2022/01/14 06:34:14;;;;;;;3.25;2.58;;;;;;;20.63;36.71;103542.97;7315221;19;129197;-63
2022/01/14 06:36:42;;;;;;;3.83;2.80;;;;;;;20.70;36.44;103535.56;7306611;19;131906;-62
2022/01/14 06:39:10;;;;;;;3.95;3.08;;;;;;;20.78;36.52;103545.72;7314004;19;131216;-63
2022/01/14 06:41:37;;;;;;;4.25;2.97;;;;;;;20.84;36.05;103548.59;7310239;19;129196;-63
2022/01/14 06:44:05;;;;;;;3.33;2.65;;;;;;;20.93;35.96;103545.66;7312328;19;129017;-63
2022/01/14 06:46:32;;;;;;;3.85;3.08;;;;;;;20.98;35.77;103551.50;7310580;19;131910;-62
2022/01/14 06:48:59;;;;;;;4.57;2.70;;;;;;;21.04;35.87;103547.94;7306967;19;131152;-63
2022/01/14 06:51:26;;;;;;;5.97;2.90;;;;;;;21.11;35.91;103539.66;7308533;19;128975;-62
2022/01/14 06:53:52;;;;;;;4.63;3.05;;;;;;;21.16;35.85;103548.25;7304216;19;129308;-63
2022/01/14 06:56:19;;;;;;;4.88;3.22;;;;;;;21.20;35.76;103539.31;7311243;19;131061;-62
2022/01/14 06:58:46;;;;;;;6.50;3.08;;;;;;;21.25;35.48;103540.63;7309735;19;131692;-62
2022/01/14 07:01:13;;;;;;;4.88;2.72;;;;;;;21.29;35.50;103553.09;7310426;19;129122;-63
2022/01/14 07:03:40;;;;;;;3.30;2.67;;;;;;;21.32;35.36;103548.00;7313389;19;129091;-62
2022/01/14 07:06:07;;;;;;;3.67;2.85;;;;;;;21.36;35.43;103548.44;7310597;19;131172;-62
2022/01/14 07:08:33;;;;;;;4.20;2.70;;;;;;;21.41;35.30;103558.97;7313965;19;131077;-62
2022/01/14 07:11:00;;;;;;;3.72;2.55;;;;;;;21.47;35.33;103561.81;7309894;19;130113;-62
2022/01/14 07:13:26;;;;;;;3.38;2.78;;;;;;;21.58;35.01;103557.66;7314119;19;129715;-63
2022/01/14 07:15:53;;;;;;;4.22;2.88;;;;;;;21.70;34.78;103551.53;7307551;19;132491;-62
2022/01/14 07:18:20;;;;;;;4.60;3.05;;;;;;;21.81;34.76;103562.09;7312978;19;131404;-63
2022/01/14 07:20:47;;;;;;;3.95;2.63;;;;;;;22.00;34.25;103559.63;7310868;19;130195;-62
2022/01/14 07:23:13;;;;;;;3.35;2.70;;;;;;;22.16;34.03;103553.72;7312345;19;129003;-63
2022/01/14 07:25:40;;;;;;;3.85;2.70;;;;;;;22.30;33.91;103557.44;7312871;19;131336;-62
2022/01/14 07:28:07;;;;;;;3.63;2.47;;;;;;;22.38;34.04;103559.22;7309238;19;131062;-62
2022/01/14 07:30:33;;;;;;;3.78;2.70;;;;;;;22.45;33.94;103571.28;7312462;19;128990;-62
2022/01/14 07:33:01;;;;;;;2.92;2.50;;;;;;;22.49;33.51;103575.34;7309358;19;128915;-62
2022/01/14 07:35:28;;;;;;;3.50;2.95;;;;;;;22.52;33.39;103579.66;7312749;19;131236;-62
2022/01/14 07:37:55;;;;;;;4.50;2.70;;;;;;;22.53;33.52;103575.78;7307578;19;131704;-62
2022/01/14 07:40:22;;;;;;;3.28;2.75;;;;;;;22.53;33.54;103582.22;7312210;19;130090;-62
2022/01/14 07:42:48;;;;;;;5.25;2.85;;;;;;;22.50;33.67;103585.44;7308842;19;129976;-61
2022/01/14 07:45:15;;;;;;;7.05;2.53;;;;;;;22.46;33.57;103581.38;7311179;19;131170;-62
2022/01/14 07:47:42;;;;;;;6.90;3.25;;;;;;;22.41;33.86;103576.38;7308939;19;132194;-62
2022/01/14 07:50:09;;;;;;;5.25;2.80;;;;;;;22.38;33.45;103587.97;7309043;19;131692;-62
2022/01/14 07:52:35;;;;;;;4.75;2.90;;;;;;;22.33;33.97;103582.16;7314099;19;130874;-62
2022/01/14 07:55:03;;;;;;;3.47;2.85;;;;;;;22.29;33.96;103575.25;7309533;19;131598;-62
2022/01/14 07:57:30;;;;;;;4.40;2.38;;;;;;;22.24;33.90;103589.81;7311809;19;131785;-62
2022/01/14 07:59:57;;;;;;;4.03;2.60;;;;;;;22.21;33.74;103586.59;7309598;19;129006;-61
2022/01/14 08:02:25;;;;;;;4.22;2.90;;;;;;;22.15;34.24;103588.25;7308626;19;129092;-62
2022/01/14 08:04:52;;;;;;;3.03;2.72;;;;;;;22.09;34.09;103592.72;7319760;19;131469;-61
2022/01/14 08:07:22;;;;;;;3.70;2.92;;;;;;;22.04;33.98;103586.03;7315579;19;131459;-62
2022/01/14 08:09:52;;;;;;;6.90;3.20;;;;;;;21.97;34.34;103578.47;7317595;19;131162;-61
2022/01/14 08:12:18;;;;;;;3.63;2.97;;;;;;;21.89;34.55;103580.59;7314426;19;128871;-63
2022/01/14 08:14:45;;;;;;;4.35;2.63;;;;;;;21.82;34.34;103580.53;7319396;19;131479;-61
2022/01/14 08:17:15;;;;;;;3.92;3.13;;;;;;;21.75;34.43;103586.06;7314523;19;131085;-61
2022/01/14 08:19:41;;;;;;;5.28;3.15;;;;;;;21.67;34.05;103584.28;7315935;19;131179;-61
2022/01/14 08:22:08;;;;;;;10.48;7.57;;;;;;;21.50;30.83;103580.94;7318084;19;128867;-61
2022/01/14 08:24:36;;;;;;;17.60;9.90;;;;;;;21.30;29.66;103577.06;7314994;19;131241;-61
2022/01/14 08:27:06;;;;;;;18.13;11.13;;;;;;;21.06;28.71;103576.41;7317383;19;130966;-61
2022/01/14 08:29:34;;;;;;;13.27;10.38;;;;;;;20.82;27.36;103563.75;7315287;19;130243;-60
2022/01/14 08:32:01;;;;;;;14.50;11.30;;;;;;;20.63;26.94;103576.34;7317629;19;129073;-61
2022/01/14 08:34:27;;;;;;;15.07;11.93;;;;;;;20.43;26.53;103560.28;7317337;19;131889;-61
2022/01/14 08:36:56;;;;;;;15.73;11.30;;;;;;;20.26;26.78;103571.63;7313831;19;131401;-61
2022/01/14 08:39:22;;;;;;;15.68;11.55;;;;;;;20.14;26.37;103567.59;7318544;19;128952;-59
2022/01/14 08:41:50;;;;;;;13.88;10.65;;;;;;;20.06;26.96;103560.22;7313808;19;129106;-60
2022/01/14 08:44:17;;;;;;;12.82;9.90;;;;;;;20.10;26.88;103560.69;7315792;19;131206;-61
2022/01/14 08:46:52;;;;;;;13.40;9.43;;;;;;;20.23;26.75;103558.09;7315204;19;131263;-60
2022/01/14 08:49:19;;;;;;;12.68;9.25;;;;;;;20.45;26.84;103564.59;7314968;19;129085;-60
2022/01/14 08:51:47;;;;;;;12.07;7.97;;;;;;;20.69;26.63;103554.19;7318350;19;129261;-60
2022/01/14 08:54:14;;;;;;;14.93;7.85;;;;;;;20.90;26.78;103547.81;7312954;19;134085;-60
2022/01/14 08:56:41;;;;;;;17.38;7.40;;;;;;;21.06;26.78;103531.88;7315976;19;131980;-61
2022/01/14 08:59:08;;;;;;;10.68;7.50;;;;;;;21.22;26.53;103547.47;7314733;19;129059;-61
2022/01/14 09:01:35;;;;;;;12.60;7.00;;;;;;;21.36;27.08;103559.56;7309422;19;130770;-61
2022/01/14 09:04:03;;;;;;;11.50;6.85;;;;;;;21.50;26.77;103550.31;7316925;19;131442;-60
2022/01/14 09:06:29;;;;;;;8.80;6.65;;;;;;;21.65;27.07;103557.72;7313712;19;132090;-61
2022/01/14 09:08:56;;;;;;;11.25;7.00;;;;;;;21.78;26.95;103557.81;7318122;19;128800;-61
2022/01/14 09:11:23;;;;;;;18.02;6.50;;;;;;;21.91;26.50;103557.00;7315172;19;128965;-60
2022/01/14 09:13:50;;;;;;;11.95;5.97;;;;;;;22.04;26.70;103556.22;7314934;19;131082;-61
2022/01/14 09:16:20;;;;;;;8.38;6.30;;;;;;;22.17;26.74;103554.56;7314618;19;130981;-61
2022/01/14 09:18:48;;;;;;;10.07;6.55;;;;;;;22.26;26.94;103554.22;7314201;19;129028;-61
2022/01/14 09:21:16;;;;;;;8.43;5.85;;;;;;;22.35;26.90;103545.66;7318258;19;129679;-61
2022/01/14 09:23:51;;;;;;;6.97;5.85;;;;;;;22.43;26.32;103548.28;7313307;19;131337;-61
2022/01/14 09:26:19;;;;;;;9.40;6.13;;;;;;;22.52;26.62;103543.41;7316941;19;131074;-61
2022/01/14 09:28:47;;;;;;;11.65;6.15;;;;;;;22.59;26.82;103547.06;7313301;19;129038;-61
2022/01/14 09:31:16;;;;;;;7.85;5.63;;;;;;;22.64;26.66;103544.50;7311691;19;128986;-63
2022/01/14 09:33:42;;;;;;;9.75;5.85;;;;;;;22.70;26.59;103549.22;7314137;19;131170;-63
2022/01/14 09:36:10;;;;;;;8.02;5.22;;;;;;;22.74;26.77;103550.53;7314018;19;131287;-63
2022/01/14 09:38:37;;;;;;;6.25;4.80;;;;;;;22.80;26.64;103542.38;7316727;19;130854;-63
2022/01/14 09:41:06;;;;;;;8.02;5.32;;;;;;;22.85;26.78;103537.03;7314255;19;129032;-63
2022/01/14 09:43:36;;;;;;;7.55;5.50;;;;;;;22.89;26.81;103541.13;7315460;19;132688;-62
2022/01/14 09:46:05;;;;;;;7.45;5.07;;;;;;;22.93;26.58;103553.59;7310876;19;131825;-63
2022/01/14 09:48:33;;;;;;;9.27;5.53;;;;;;;22.98;26.71;103550.16;7313870;19;128890;-63
2022/01/14 09:51:00;;;;;;;8.30;5.35;;;;;;;23.01;26.32;103556.22;7312529;19;132265;-62
2022/01/14 09:53:28;;;;;;;7.70;5.28;;;;;;;23.05;26.69;103553.84;7315791;19;131062;-63
2022/01/14 09:55:55;;;;;;;8.95;5.47;;;;;;;23.10;26.61;103558.78;7314694;19;131148;-63
2022/01/14 09:58:27;;;;;;;8.65;5.25;;;;;;;23.13;26.67;103562.00;7313514;19;131393;-63
2022/01/14 10:01:08;;;;;;;6.03;4.80;;;;;;;23.17;26.47;103568.03;7316507;19;129306;-62
2022/01/14 10:03:46;;;;;;;9.20;5.82;;;;;;;23.13;26.66;103550.84;7311768;19;131940;-62
2022/01/14 10:06:12;;;;;;;7.75;5.07;;;;;;;23.17;26.65;103563.31;7313854;19;131032;-63
2022/01/14 10:08:39;;;;;;;6.68;5.25;;;;;;;23.19;26.68;103557.50;7311803;19;129761;-62
2022/01/14 10:11:09;;;;;;;7.85;5.13;;;;;;;23.19;26.25;103551.91;7312048;19;130278;-62
2022/01/14 10:13:37;;;;;;;7.00;5.35;;;;;;;23.21;26.68;103566.53;7315671;19;134959;-63
2022/01/14 10:16:09;;;;;;;7.70;5.15;;;;;;;23.24;26.58;103560.53;7311586;19;131088;-62
2022/01/14 10:18:38;;;;;;;8.15;5.88;;;;;;;23.23;26.59;103563.50;7316261;19;129033;-63
2022/01/14 10:21:07;;;;;;;10.07;5.85;;;;;;;23.18;26.50;103564.16;7309369;19;128995;-63
2022/01/14 10:23:40;;;;;;;8.45;5.60;;;;;;;23.15;26.40;103571.03;7314068;19;131992;-63
2022/01/14 10:26:07;;;;;;;6.50;5.30;;;;;;;23.15;26.81;103561.78;7311224;19;131220;-62
2022/01/14 10:28:34;;;;;;;6.40;5.18;;;;;;;23.17;26.73;103554.06;7312843;19;128990;-63
2022/01/14 10:31:01;;;;;;;8.10;5.03;;;;;;;23.20;26.62;103562.00;7311591;19;129012;-63
2022/01/14 10:33:29;;;;;;;7.07;4.90;;;;;;;23.25;26.82;103548.28;7310734;19;132533;-64
2022/01/14 10:35:57;;;;;;;7.65;5.43;;;;;;;23.29;26.72;103546.75;7315112;19;131499;-63
2022/01/14 10:38:26;;;;;;;9.25;4.97;;;;;;;23.31;26.81;103549.34;7312300;19;128895;-63
2022/01/14 10:40:57;;;;;;;8.68;5.03;;;;;;;23.35;26.84;103545.91;7313556;19;129018;-63
2022/01/14 10:43:32;;;;;;;8.15;4.97;;;;;;;23.39;26.92;103540.75;7311942;19;131630;-63
2022/01/14 10:46:04;;;;;;;6.20;4.63;;;;;;;23.39;26.85;103537.97;7314315;19;131112;-64
2022/01/14 10:48:34;;;;;;;7.25;5.00;;;;;;;23.40;27.25;103534.09;7311211;19;130210;-63
2022/01/14 10:51:04;;;;;;;6.07;4.75;;;;;;;23.41;27.33;103540.53;7313061;19;130768;-64
2022/01/14 10:53:36;;;;;;;6.07;4.43;;;;;;;23.42;27.19;103539.44;7314773;19;131288;-64
2022/01/14 10:56:11;;;;;;;6.65;4.63;;;;;;;23.43;27.50;103538.38;7310868;19;131011;-64
2022/01/14 10:58:44;;;;;;;7.10;4.78;;;;;;;23.41;27.76;103535.81;7315160;19;128849;-64
2022/01/14 11:01:24;;;;;;;5.22;4.03;;;;;;;23.41;27.46;103537.72;7309719;19;128971;-65
2022/01/14 11:03:56;;;;;;;6.65;4.10;;;;;;;23.40;27.81;103541.59;7314029;19;131305;-64
2022/01/14 11:06:31;;;;;;;5.88;4.55;;;;;;;23.34;27.80;103549.78;7310083;19;130885;-64
2022/01/14 11:09:00;;;;;;;6.00;4.53;;;;;;;23.29;27.61;103543.97;7309929;19;128789;-65
2022/01/14 11:11:29;;;;;;;5.43;4.60;;;;;;;23.21;27.67;103544.19;7314219;19;130515;-64
2022/01/14 11:13:57;;;;;;;6.82;4.53;;;;;;;23.14;28.17;103543.34;7310427;19;131201;-65
2022/01/14 11:16:24;;;;;;;7.82;4.90;;;;;;;23.05;28.13;103537.94;7312810;19;131848;-64
2022/01/14 11:19:00;;;;;;;5.88;4.78;;;;;;;22.98;28.27;103542.66;7310480;19;129208;-64
2022/01/14 11:24:22;;;;;;;6.15;4.60;;;;;;;22.78;28.70;103545.41;7312760;19;131378;-64
2022/01/14 11:26:52;;;;;;;6.47;4.95;;;;;;;22.66;28.66;103531.19;7310956;19;132904;-64
2022/01/14 11:29:21;;;;;;;5.43;4.60;;;;;;;22.56;28.76;103526.03;7313838;19;129151;-64
2022/01/14 11:31:59;;;;;;;6.20;4.70;;;;;;;22.47;29.19;103526.41;7308722;19;129810;-64
2022/01/14 11:34:33;;;;;;;8.02;5.05;;;;;;;22.37;28.83;103524.00;7311574;19;131278;-64
2022/01/14 11:37:02;;;;;;;8.23;5.20;;;;;;;22.31;29.14;103519.28;7308311;19;131323;-64
2022/01/14 11:39:32;;;;;;;7.25;5.50;;;;;;;22.22;29.13;103516.66;7314386;19;130897;-64
2022/01/14 11:42:12;;;;;;;8.95;5.53;;;;;;;22.15;29.37;103512.97;7319168;19;133013;-64
2022/01/14 11:44:43;;;;;;;7.35;5.18;;;;;;;22.09;29.53;103514.66;7309997;19;132255;-64